createdAt,value
2023-04-15T00:00:09.076Z,42.03
2023-04-15T00:01:09.043Z,42.03
2023-04-15T00:02:09.036Z,42.03
2023-04-15T00:03:09.154Z,42.02
2023-04-15T00:04:08.989Z,41.99
2023-04-15T00:05:08.911Z,41.97
2023-04-15T00:06:08.890Z,41.98
2023-04-15T00:07:08.835Z,41.95
2023-04-15T00:08:08.835Z,41.97
2023-04-15T00:09:08.773Z,41.93
2023-04-15T00:10:08.758Z,41.91
2023-04-15T00:11:08.707Z,41.91
2023-04-15T00:12:08.660Z,41.92
2023-04-15T00:13:08.626Z,41.90
2023-04-15T00:14:08.581Z,41.88
2023-04-15T00:15:08.550Z,41.88
2023-04-15T00:16:08.522Z,41.86
2023-04-15T00:17:08.518Z,41.85
2023-04-15T00:18:08.491Z,41.83
2023-04-15T00:19:08.633Z,41.83
2023-04-15T00:20:08.491Z,41.85
2023-04-15T00:21:08.523Z,41.81
2023-04-15T00:22:08.459Z,41.85
2023-04-15T00:23:08.491Z,41.82
2023-04-15T00:24:08.459Z,41.77
2023-04-15T00:25:08.462Z,41.77
2023-04-15T00:26:08.452Z,41.77
2023-04-15T00:27:08.427Z,41.76
2023-04-15T00:28:08.425Z,41.74
2023-04-15T00:29:08.402Z,41.75
2023-04-15T00:30:08.406Z,41.75
2023-04-15T00:31:08.414Z,41.76
2023-04-15T00:32:08.370Z,41.73
2023-04-15T00:33:08.361Z,41.73
2023-04-15T00:34:08.357Z,41.70
2023-04-15T00:35:08.348Z,41.70
2023-04-15T00:36:08.340Z,41.72
2023-04-15T00:37:08.318Z,41.69
2023-04-15T00:38:08.315Z,41.68
2023-04-15T00:39:08.293Z,41.68
2023-04-15T00:40:08.289Z,41.64
2023-04-15T00:41:08.280Z,41.68
2023-04-15T00:42:08.264Z,41.63
2023-04-15T00:43:08.248Z,41.63
2023-04-15T00:44:08.239Z,41.61
2023-04-15T00:45:08.231Z,41.61
2023-04-15T00:46:08.278Z,41.62
2023-04-15T00:47:08.215Z,41.59
2023-04-15T00:48:08.197Z,41.60
2023-04-15T00:49:08.202Z,41.60
2023-04-15T00:50:08.205Z,41.58
2023-04-15T00:51:08.173Z,41.57
2023-04-15T00:52:08.164Z,41.57
2023-04-15T00:53:08.164Z,41.56
2023-04-15T00:54:08.159Z,41.56
2023-04-15T00:55:08.155Z,41.55
2023-04-15T00:56:08.153Z,41.52
2023-04-15T00:57:08.135Z,41.52
2023-04-15T00:58:08.131Z,41.52
2023-04-15T00:59:08.118Z,41.54
2023-04-15T01:00:08.141Z,41.52
2023-04-15T01:01:08.160Z,41.51
2023-04-15T01:02:08.319Z,41.50
2023-04-15T01:03:08.269Z,41.48
2023-04-15T01:04:08.145Z,41.47
2023-04-15T01:05:08.072Z,41.45
2023-04-15T01:06:08.066Z,41.43
2023-04-15T01:07:08.056Z,41.44
2023-04-15T01:08:08.053Z,41.44
2023-04-15T01:09:08.068Z,41.43
2023-04-15T01:10:08.053Z,41.41
2023-04-15T01:11:08.049Z,41.42
2023-04-15T01:12:08.058Z,41.40
2023-04-15T01:13:08.043Z,41.36
2023-04-15T01:14:08.062Z,41.38
2023-04-15T01:15:08.051Z,41.37
2023-04-15T01:16:08.077Z,41.37
2023-04-15T01:17:08.035Z,41.36
2023-04-15T01:18:08.033Z,41.33
2023-04-15T01:19:08.017Z,41.32
2023-04-15T01:20:08.049Z,41.30
2023-04-15T01:21:08.015Z,41.30
2023-04-15T01:22:08.002Z,41.28
2023-04-15T01:23:08.008Z,41.30
2023-04-15T01:24:08.008Z,41.32
2023-04-15T01:25:08.025Z,41.30
2023-04-15T01:26:07.993Z,41.29
2023-04-15T01:27:07.991Z,41.27
2023-04-15T01:28:07.982Z,41.26
2023-04-15T01:29:07.987Z,41.27
2023-04-15T01:30:07.974Z,41.25
2023-04-15T01:31:08.045Z,41.25
2023-04-15T01:32:07.963Z,41.22
2023-04-15T01:33:07.967Z,41.21
2023-04-15T01:34:07.964Z,41.24
2023-04-15T01:35:07.961Z,41.22
2023-04-15T01:36:07.947Z,41.22
2023-04-15T01:37:07.939Z,41.21
2023-04-15T01:38:07.943Z,41.18
2023-04-15T01:39:07.944Z,41.18
2023-04-15T01:40:07.943Z,41.19
2023-04-15T01:41:08.136Z,41.17
2023-04-15T01:42:07.931Z,41.19
2023-04-15T01:43:08.095Z,41.14
2023-04-15T01:44:07.951Z,41.15
2023-04-15T01:45:07.946Z,41.13
2023-04-15T01:46:07.948Z,41.12
2023-04-15T01:47:07.932Z,41.11
2023-04-15T01:48:07.936Z,41.13
2023-04-15T01:49:07.932Z,41.12
2023-04-15T01:50:07.943Z,41.11
2023-04-15T01:51:07.928Z,41.09
2023-04-15T01:52:07.938Z,41.11
2023-04-15T01:53:07.929Z,41.11
2023-04-15T01:54:07.971Z,41.06
2023-04-15T01:55:07.933Z,41.05
2023-04-15T01:56:07.934Z,41.03
2023-04-15T01:57:07.935Z,41.02
2023-04-15T01:58:07.938Z,41.03
2023-04-15T01:59:07.955Z,41.03
2023-04-15T02:00:07.947Z,41.01
2023-04-15T02:01:08.017Z,41.00
2023-04-15T02:02:08.018Z,40.97
2023-04-15T02:03:08.032Z,40.96
2023-04-15T02:04:08.082Z,40.97
2023-04-15T02:05:07.963Z,40.97
2023-04-15T02:06:08.010Z,40.97
2023-04-15T02:07:07.990Z,40.93
2023-04-15T02:08:07.987Z,40.92
2023-04-15T02:09:07.996Z,40.93
2023-04-15T02:10:08.003Z,40.91
2023-04-15T02:11:08.005Z,40.91
2023-04-15T02:12:08.016Z,40.90
2023-04-15T02:13:08.014Z,40.90
2023-04-15T02:14:08.019Z,40.88
2023-04-15T02:15:08.038Z,40.88
2023-04-15T02:16:08.053Z,40.85
2023-04-15T02:17:08.095Z,40.82
2023-04-15T02:18:08.046Z,40.83
2023-04-15T02:19:08.086Z,40.81
2023-04-15T02:20:08.057Z,40.80
2023-04-15T02:21:08.061Z,40.80
2023-04-15T02:22:08.073Z,40.78
2023-04-15T02:23:08.077Z,40.77
2023-04-15T02:24:08.083Z,40.74
2023-04-15T02:25:08.094Z,40.73
2023-04-15T02:26:08.113Z,40.74
2023-04-15T02:27:08.096Z,40.74
2023-04-15T02:28:08.114Z,40.72
2023-04-15T02:29:08.134Z,40.73
2023-04-15T02:30:08.132Z,40.70
2023-04-15T02:31:08.157Z,40.71
2023-04-15T02:32:08.188Z,40.69
2023-04-15T02:33:08.773Z,40.70
2023-04-15T02:34:08.181Z,40.71
2023-04-15T02:35:08.143Z,40.67
2023-04-15T02:36:08.161Z,40.66
2023-04-15T02:37:08.163Z,40.63
2023-04-15T02:38:08.175Z,40.67
2023-04-15T02:39:08.185Z,40.66
2023-04-15T02:40:08.208Z,40.68
2023-04-15T02:41:08.204Z,40.64
2023-04-15T02:42:08.222Z,40.62
2023-04-15T02:43:08.224Z,40.64
2023-04-15T02:44:09.329Z,40.62
2023-04-15T02:45:08.419Z,40.61
2023-04-15T02:46:08.526Z,40.64
2023-04-15T02:47:08.434Z,40.60
2023-04-15T02:48:08.419Z,40.60
2023-04-15T02:49:08.436Z,40.58
2023-04-15T02:50:08.777Z,40.58
2023-04-15T02:51:08.433Z,40.58
2023-04-15T02:52:08.436Z,40.58
2023-04-15T02:53:08.445Z,40.58
2023-04-15T02:54:08.454Z,40.55
2023-04-15T02:55:08.485Z,40.52
2023-04-15T02:56:08.481Z,40.53
2023-04-15T02:57:08.498Z,40.54
2023-04-15T02:58:08.494Z,40.55
2023-04-15T02:59:08.506Z,40.52
2023-04-15T03:00:08.512Z,40.52
2023-04-15T03:01:08.526Z,40.53
2023-04-15T03:02:08.591Z,40.52
2023-04-15T03:03:08.688Z,40.52
2023-04-15T03:04:08.580Z,40.49
2023-04-15T03:05:08.540Z,40.50
2023-04-15T03:06:08.544Z,40.44
2023-04-15T03:07:08.593Z,40.45
2023-04-15T03:08:09.291Z,40.49
2023-04-15T03:09:08.577Z,40.47
2023-04-15T03:10:08.601Z,40.46
2023-04-15T03:11:08.599Z,40.48
2023-04-15T03:12:08.601Z,40.44
2023-04-15T03:13:08.642Z,40.44
2023-04-15T03:14:08.614Z,40.43
2023-04-15T03:15:08.633Z,40.42
2023-04-15T03:16:08.676Z,40.40
2023-04-15T03:17:08.659Z,40.39
2023-04-15T03:18:08.660Z,40.41
2023-04-15T03:19:08.692Z,40.39
2023-04-15T03:20:08.745Z,40.38
2023-04-15T03:21:08.710Z,40.36
2023-04-15T03:22:08.719Z,40.38
2023-04-15T03:23:08.721Z,40.34
2023-04-15T03:24:08.740Z,40.34
2023-04-15T03:25:08.748Z,40.32
2023-04-15T03:26:08.774Z,40.31
2023-04-15T03:27:08.770Z,40.29
2023-04-15T03:28:08.814Z,40.28
2023-04-15T03:29:08.809Z,40.29
2023-04-15T03:30:08.841Z,40.31
2023-04-15T03:31:08.876Z,40.29
2023-04-15T03:32:08.858Z,40.26
2023-04-15T03:33:08.871Z,40.25
2023-04-15T03:34:08.890Z,40.25
2023-04-15T03:35:08.894Z,40.25
2023-04-15T03:36:08.906Z,40.26
2023-04-15T03:37:08.921Z,40.23
2023-04-15T03:38:08.934Z,40.24
2023-04-15T03:39:08.952Z,40.19
2023-04-15T03:40:08.968Z,40.19
2023-04-15T03:41:08.970Z,40.20
2023-04-15T03:42:09.002Z,40.23
2023-04-15T03:43:09.005Z,40.17
2023-04-15T03:44:09.030Z,40.15
2023-04-15T03:45:09.202Z,40.14
2023-04-15T03:46:09.071Z,40.15
2023-04-15T03:47:09.075Z,40.15
2023-04-15T03:48:17.341Z,40.13
2023-04-15T03:49:10.052Z,40.15
2023-04-15T03:50:09.030Z,40.13
2023-04-15T03:51:08.995Z,40.11
2023-04-15T03:52:08.962Z,40.09
2023-04-15T03:53:08.946Z,40.11
2023-04-15T03:54:08.915Z,40.10
2023-04-15T03:55:08.896Z,40.12
2023-04-15T03:56:08.876Z,40.08
2023-04-15T03:57:08.862Z,40.05
2023-04-15T03:58:08.847Z,40.07
2023-04-15T03:59:08.816Z,40.07
2023-04-15T04:00:08.791Z,40.06
2023-04-15T04:01:08.761Z,40.07
2023-04-15T04:02:08.821Z,40.06
2023-04-15T04:03:09.049Z,40.05
2023-04-15T04:04:08.885Z,40.05
2023-04-15T04:05:08.800Z,40.01
2023-04-15T04:06:08.813Z,40.01
2023-04-15T04:07:08.881Z,39.99
2023-04-15T04:08:08.835Z,39.98
2023-04-15T04:09:08.851Z,39.97
2023-04-15T04:10:08.875Z,39.96
2023-04-15T04:11:08.882Z,39.98
2023-04-15T04:12:08.913Z,39.98
2023-04-15T04:13:08.920Z,39.96
2023-04-15T04:14:08.942Z,39.97
2023-04-15T04:15:08.950Z,39.92
2023-04-15T04:16:09.013Z,39.94
2023-04-15T04:17:09.024Z,39.91
2023-04-15T04:18:08.999Z,39.90
2023-04-15T04:19:09.040Z,39.92
2023-04-15T04:20:09.054Z,39.89
2023-04-15T04:21:10.082Z,39.86
2023-04-15T04:22:09.013Z,39.88
2023-04-15T04:23:08.975Z,39.86
2023-04-15T04:24:08.959Z,39.86
2023-04-15T04:25:08.931Z,39.87
2023-04-15T04:26:08.903Z,39.85
2023-04-15T04:27:08.876Z,39.83
2023-04-15T04:28:08.866Z,39.84
2023-04-15T04:29:08.836Z,39.84
2023-04-15T04:30:08.817Z,39.82
2023-04-15T04:31:08.813Z,39.81
2023-04-15T04:32:08.850Z,39.79
2023-04-15T04:33:08.792Z,39.80
2023-04-15T04:34:08.820Z,39.80
2023-04-15T04:35:08.849Z,39.81
2023-04-15T04:36:08.860Z,39.80
2023-04-15T04:37:08.882Z,39.77
2023-04-15T04:38:08.908Z,39.76
2023-04-15T04:39:08.929Z,39.75
2023-04-15T04:40:08.949Z,39.75
2023-04-15T04:41:08.985Z,39.73
2023-04-15T04:42:08.990Z,39.74
2023-04-15T04:43:09.016Z,39.71
2023-04-15T04:44:09.042Z,39.70
2023-04-15T04:45:09.068Z,39.70
2023-04-15T04:46:09.137Z,39.64
2023-04-15T04:47:09.097Z,39.66
2023-04-15T04:48:09.111Z,39.66
2023-04-15T04:49:09.147Z,39.67
2023-04-15T04:50:09.180Z,39.66
2023-04-15T04:51:09.183Z,39.63
2023-04-15T04:52:09.216Z,39.63
2023-04-15T04:53:09.235Z,39.65
2023-04-15T04:54:09.256Z,39.63
2023-04-15T04:55:09.285Z,39.62
2023-04-15T04:56:09.291Z,39.61
2023-04-15T04:57:09.314Z,39.60
2023-04-15T04:58:09.333Z,39.62
2023-04-15T04:59:09.354Z,39.61
2023-04-15T05:00:09.384Z,39.61
2023-04-15T05:01:09.408Z,39.58
2023-04-15T05:02:09.469Z,39.58
2023-04-15T05:03:09.599Z,39.57
2023-04-15T05:04:09.646Z,39.59
2023-04-15T05:05:09.490Z,39.58
2023-04-15T05:06:09.522Z,39.56
2023-04-15T05:07:09.534Z,39.54
2023-04-15T05:08:09.552Z,39.55
2023-04-15T05:09:09.581Z,39.56
2023-04-15T05:10:09.833Z,39.55
2023-04-15T05:11:09.617Z,39.54
2023-04-15T05:12:09.651Z,39.52
2023-04-15T05:13:09.668Z,39.52
2023-04-15T05:14:09.691Z,39.51
2023-04-15T05:15:09.705Z,39.47
2023-04-15T05:16:09.769Z,39.48
2023-04-15T05:17:09.766Z,39.47
2023-04-15T05:18:09.783Z,39.45
2023-04-15T05:19:09.791Z,39.46
2023-04-15T05:20:09.826Z,39.44
2023-04-15T05:21:09.865Z,39.44
2023-04-15T05:22:09.870Z,39.45
2023-04-15T05:23:09.910Z,39.45
2023-04-15T05:24:09.927Z,39.44
2023-04-15T05:25:09.943Z,39.42
2023-04-15T05:26:09.954Z,39.43
2023-04-15T05:27:09.986Z,39.38
2023-04-15T05:28:09.998Z,39.39
2023-04-15T05:29:10.054Z,39.39
2023-04-15T05:30:11.620Z,39.39
2023-04-15T05:31:10.083Z,39.37
2023-04-15T05:32:09.992Z,39.37
2023-04-15T05:33:09.966Z,39.33
2023-04-15T05:34:09.935Z,39.32
2023-04-15T05:35:09.936Z,39.33
2023-04-15T05:36:09.896Z,39.34
2023-04-15T05:37:09.882Z,39.34
2023-04-15T05:38:09.864Z,39.33
2023-04-15T05:39:09.832Z,39.32
2023-04-15T05:40:09.811Z,39.32
2023-04-15T05:41:09.792Z,39.28
2023-04-15T05:42:09.764Z,39.26
2023-04-15T05:43:09.733Z,39.24
2023-04-15T05:44:09.699Z,39.25
2023-04-15T05:45:09.665Z,39.23
2023-04-15T05:46:09.656Z,39.25
2023-04-15T05:47:09.612Z,39.22
2023-04-15T05:48:09.584Z,39.20
2023-04-15T05:49:09.548Z,39.21
2023-04-15T05:50:09.532Z,39.20
2023-04-15T05:51:09.506Z,39.19
2023-04-15T05:52:09.481Z,39.18
2023-04-15T05:53:09.456Z,39.19
2023-04-15T05:54:09.422Z,39.20
2023-04-15T05:55:09.400Z,39.17
2023-04-15T05:56:09.377Z,39.17
2023-04-15T05:57:09.345Z,39.16
2023-04-15T05:58:09.412Z,39.14
2023-04-15T05:59:09.299Z,39.16
2023-04-15T06:00:09.264Z,39.15
2023-04-15T06:01:09.237Z,39.13
2023-04-15T06:02:09.269Z,39.13
2023-04-15T06:03:09.227Z,39.12
2023-04-15T06:04:09.233Z,39.12
2023-04-15T06:05:09.286Z,39.10
2023-04-15T06:06:09.094Z,39.08
2023-04-15T06:07:09.064Z,39.09
2023-04-15T06:08:09.038Z,39.08
2023-04-15T06:09:09.008Z,39.05
2023-04-15T06:10:08.981Z,39.08
2023-04-15T06:11:08.969Z,39.06
2023-04-15T06:12:08.947Z,39.02
2023-04-15T06:13:08.926Z,39.01
2023-04-15T06:14:08.884Z,39.01
2023-04-15T06:15:08.881Z,39.01
2023-04-15T06:16:08.853Z,39.00
2023-04-15T06:17:08.881Z,39.00
2023-04-15T06:18:08.857Z,38.97
2023-04-15T06:19:08.866Z,38.97
2023-04-15T06:20:08.898Z,38.99
2023-04-15T06:21:08.933Z,38.94
2023-04-15T06:22:08.919Z,38.94
2023-04-15T06:23:08.932Z,38.90
2023-04-15T06:24:08.947Z,38.93
2023-04-15T06:25:08.959Z,38.90
2023-04-15T06:26:08.971Z,38.92
2023-04-15T06:27:09.001Z,38.92
2023-04-15T06:28:08.989Z,38.87
2023-04-15T06:29:09.016Z,38.85
2023-04-15T06:30:09.031Z,38.86
2023-04-15T06:31:09.104Z,38.84
2023-04-15T06:32:09.070Z,38.84
2023-04-15T06:33:09.091Z,38.83
2023-04-15T06:34:09.131Z,38.80
2023-04-15T06:35:09.135Z,38.76
2023-04-15T06:36:09.145Z,38.77
2023-04-15T06:37:09.182Z,38.75
2023-04-15T06:38:09.182Z,38.74
2023-04-15T06:39:09.209Z,38.74
2023-04-15T06:40:09.214Z,38.72
2023-04-15T06:41:09.228Z,38.69
2023-04-15T06:42:09.239Z,38.70
2023-04-15T06:43:09.262Z,38.65
2023-04-15T06:44:09.275Z,38.67
2023-04-15T06:45:09.294Z,38.67
2023-04-15T06:46:09.404Z,38.65
2023-04-15T06:47:09.327Z,38.63
2023-04-15T06:48:09.342Z,38.62
2023-04-15T06:49:09.369Z,38.60
2023-04-15T06:50:09.424Z,38.60
2023-04-15T06:51:09.390Z,38.59
2023-04-15T06:52:09.422Z,38.57
2023-04-15T06:53:09.425Z,38.55
2023-04-15T06:54:09.446Z,38.54
2023-04-15T06:55:09.455Z,38.52
2023-04-15T06:56:09.468Z,38.52
2023-04-15T06:57:09.498Z,38.51
2023-04-15T06:58:09.501Z,38.45
2023-04-15T06:59:09.526Z,38.45
2023-04-15T07:00:09.535Z,38.45
2023-04-15T07:01:09.564Z,38.44
2023-04-15T07:02:09.583Z,38.42
2023-04-15T07:03:09.612Z,38.40
2023-04-15T07:04:09.622Z,38.35
2023-04-15T07:05:09.610Z,38.37
2023-04-15T07:06:09.600Z,38.36
2023-04-15T07:07:09.616Z,38.32
2023-04-15T07:08:09.644Z,38.32
2023-04-15T07:09:09.644Z,38.30
2023-04-15T07:10:09.656Z,38.29
2023-04-15T07:11:09.653Z,38.26
2023-04-15T07:12:09.664Z,38.25
2023-04-15T07:13:09.674Z,38.26
2023-04-15T07:14:09.679Z,38.23
2023-04-15T07:15:09.690Z,38.20
2023-04-15T07:16:09.730Z,38.21
2023-04-15T07:17:09.783Z,38.18
2023-04-15T07:18:09.723Z,38.18
2023-04-15T07:19:09.800Z,38.16
2023-04-15T07:20:09.873Z,38.16
2023-04-15T07:21:09.741Z,38.12
2023-04-15T07:22:09.742Z,38.11
2023-04-15T07:23:09.777Z,38.12
2023-04-15T07:24:09.763Z,38.10
2023-04-15T07:25:09.770Z,38.10
2023-04-15T07:26:09.777Z,38.10
2023-04-15T07:27:09.786Z,38.08
2023-04-15T07:28:09.784Z,38.06
2023-04-15T07:29:09.786Z,38.02
2023-04-15T07:30:09.818Z,38.03
2023-04-15T07:31:09.864Z,38.03
2023-04-15T07:32:09.800Z,38.03
2023-04-15T07:33:09.807Z,37.99
2023-04-15T07:34:09.823Z,37.99
2023-04-15T07:35:09.846Z,37.99
2023-04-15T07:36:09.818Z,37.96
2023-04-15T07:37:09.836Z,37.97
2023-04-15T07:38:09.845Z,37.96
2023-04-15T07:39:09.825Z,37.93
2023-04-15T07:40:09.826Z,37.95
2023-04-15T07:41:09.831Z,37.94
2023-04-15T07:42:09.861Z,37.93
2023-04-15T07:43:09.854Z,37.93
2023-04-15T07:44:09.853Z,37.91
2023-04-15T07:45:09.866Z,37.91
2023-04-15T07:46:09.901Z,37.89
2023-04-15T07:47:09.879Z,37.86
2023-04-15T07:48:09.878Z,37.85
2023-04-15T07:49:09.879Z,37.87
2023-04-15T07:50:10.872Z,37.86
2023-04-15T07:51:09.880Z,37.83
2023-04-15T07:52:09.890Z,37.84
2023-04-15T07:53:09.917Z,37.82
2023-04-15T07:54:09.903Z,37.82
2023-04-15T07:55:09.911Z,37.83
2023-04-15T07:56:09.929Z,37.81
2023-04-15T07:57:09.941Z,37.81
2023-04-15T07:58:09.920Z,37.78
2023-04-15T07:59:09.946Z,37.80
2023-04-15T08:00:09.941Z,37.78
2023-04-15T08:01:09.931Z,37.77
2023-04-15T08:02:10.029Z,37.77
2023-04-15T08:03:10.133Z,37.73
2023-04-15T08:04:10.122Z,37.77
2023-04-15T08:05:09.993Z,37.77
2023-04-15T08:06:09.967Z,37.74
2023-04-15T08:07:10.036Z,37.71
2023-04-15T08:08:09.981Z,37.71
2023-04-15T08:09:09.979Z,37.67
2023-04-15T08:10:09.986Z,37.70
2023-04-15T08:11:09.975Z,37.65
2023-04-15T08:12:09.972Z,37.65
2023-04-15T08:13:09.969Z,37.67
2023-04-15T08:14:09.976Z,37.64
2023-04-15T08:15:09.976Z,37.63
2023-04-15T08:16:10.000Z,37.64
2023-04-15T08:17:09.953Z,37.61
2023-04-15T08:18:09.963Z,37.62
2023-04-15T08:19:09.951Z,37.58
2023-04-15T08:20:09.961Z,37.60
2023-04-15T08:21:09.968Z,37.60
2023-04-15T08:22:10.471Z,37.55
2023-04-15T08:23:10.930Z,37.58
2023-04-15T08:24:09.907Z,37.57
2023-04-15T08:25:09.880Z,37.55
2023-04-15T08:26:09.852Z,37.53
2023-04-15T08:27:09.826Z,37.54
2023-04-15T08:28:09.787Z,37.53
2023-04-15T08:29:09.760Z,37.52
2023-04-15T08:30:09.717Z,37.51
2023-04-15T08:31:09.800Z,37.51
2023-04-15T08:32:09.654Z,37.50
2023-04-15T08:33:09.612Z,37.48
2023-04-15T08:34:09.573Z,37.51
2023-04-15T08:35:09.545Z,37.47
2023-04-15T08:36:09.506Z,37.47
2023-04-15T08:37:10.915Z,37.46
2023-04-15T08:38:09.440Z,37.45
2023-04-15T08:39:09.410Z,37.44
2023-04-15T08:40:09.390Z,37.41
2023-04-15T08:41:09.346Z,37.39
2023-04-15T08:42:09.321Z,37.39
2023-04-15T08:43:09.296Z,37.41
2023-04-15T08:44:09.255Z,37.36
2023-04-15T08:45:09.226Z,37.36
2023-04-15T08:46:09.198Z,37.35
2023-04-15T08:47:09.288Z,37.35
2023-04-15T08:48:09.151Z,37.33
2023-04-15T08:49:09.126Z,37.32
2023-04-15T08:50:09.091Z,37.31
2023-04-15T08:51:09.052Z,37.31
2023-04-15T08:52:09.034Z,37.26
2023-04-15T08:53:08.992Z,37.28
2023-04-15T08:54:08.961Z,37.25
2023-04-15T08:55:08.932Z,37.24
2023-04-15T08:56:08.900Z,37.25
2023-04-15T08:57:08.864Z,37.20
2023-04-15T08:58:08.833Z,37.21
2023-04-15T08:59:08.902Z,37.25
2023-04-15T09:00:08.782Z,37.19
2023-04-15T09:01:08.755Z,37.19
2023-04-15T09:02:08.757Z,37.16
2023-04-15T09:03:08.836Z,37.18
2023-04-15T09:04:08.719Z,37.17
2023-04-15T09:05:08.630Z,37.19
2023-04-15T09:06:08.581Z,37.17
2023-04-15T09:07:08.547Z,37.18
2023-04-15T09:08:08.575Z,37.16
2023-04-15T09:09:08.471Z,37.16
2023-04-15T09:10:08.450Z,37.15
2023-04-15T09:11:08.409Z,37.16
2023-04-15T09:12:08.364Z,37.15
2023-04-15T09:13:08.332Z,37.14
2023-04-15T09:14:08.377Z,37.13
2023-04-15T09:15:08.278Z,37.14
2023-04-15T09:16:08.520Z,37.13
2023-04-15T09:17:08.214Z,37.12
2023-04-15T09:18:08.193Z,37.09
2023-04-15T09:19:08.146Z,37.08
2023-04-15T09:20:08.119Z,37.10
2023-04-15T09:21:08.074Z,37.09
2023-04-15T09:22:08.052Z,37.10
2023-04-15T09:23:08.021Z,37.09
2023-04-15T09:24:08.004Z,37.07
2023-04-15T09:25:07.956Z,37.07
2023-04-15T09:26:07.928Z,37.07
2023-04-15T09:27:07.880Z,37.05
2023-04-15T09:28:07.872Z,37.05
2023-04-15T09:29:07.904Z,37.05
2023-04-15T09:30:07.802Z,37.01
2023-04-15T09:31:07.841Z,37.03
2023-04-15T09:32:07.709Z,37.01
2023-04-15T09:33:07.693Z,37.01
2023-04-15T09:34:07.650Z,36.97
2023-04-15T09:35:07.610Z,37.00
2023-04-15T09:36:08.413Z,36.98
2023-04-15T09:37:07.961Z,36.97
2023-04-15T09:38:07.602Z,36.94
2023-04-15T09:39:07.500Z,36.95
2023-04-15T09:40:07.472Z,36.94
2023-04-15T09:41:07.437Z,36.94
2023-04-15T09:42:07.400Z,36.91
2023-04-15T09:43:07.362Z,36.90
2023-04-15T09:44:07.319Z,36.87
2023-04-15T09:45:07.280Z,36.88
2023-04-15T09:46:07.315Z,36.86
2023-04-15T09:47:07.216Z,36.86
2023-04-15T09:48:07.268Z,36.85
2023-04-15T09:49:07.153Z,36.85
2023-04-15T09:50:07.424Z,36.84
2023-04-15T09:51:07.095Z,36.83
2023-04-15T09:52:07.104Z,36.82
2023-04-15T09:53:07.006Z,36.82
2023-04-15T09:54:06.956Z,36.80
2023-04-15T09:55:06.932Z,36.80
2023-04-15T09:56:06.886Z,36.80
2023-04-15T09:57:06.864Z,36.82
2023-04-15T09:58:06.818Z,36.81
2023-04-15T09:59:06.794Z,36.80
2023-04-15T10:00:06.745Z,36.77
2023-04-15T10:01:06.733Z,36.80
2023-04-15T10:02:06.751Z,36.78
2023-04-15T10:03:06.713Z,36.78
2023-04-15T10:04:07.100Z,36.76
2023-04-15T10:05:06.563Z,36.77
2023-04-15T10:06:06.529Z,36.78
2023-04-15T10:07:06.472Z,36.76
2023-04-15T10:08:06.427Z,36.78
2023-04-15T10:09:06.919Z,36.76
2023-04-15T10:10:06.373Z,36.75
2023-04-15T10:11:06.350Z,36.75
2023-04-15T10:12:06.301Z,36.74
2023-04-15T10:13:06.272Z,36.76
2023-04-15T10:14:06.228Z,36.76
2023-04-15T10:15:06.191Z,36.76
2023-04-15T10:16:06.222Z,36.75
2023-04-15T10:17:06.120Z,36.75
2023-04-15T10:18:06.115Z,36.73
2023-04-15T10:19:06.053Z,36.73
2023-04-15T10:20:06.017Z,36.74
2023-04-15T10:21:05.985Z,36.73
2023-04-15T10:22:05.958Z,36.76
2023-04-15T10:23:06.878Z,36.72
2023-04-15T10:24:05.871Z,36.75
2023-04-15T10:25:05.853Z,36.73
2023-04-15T10:26:05.812Z,36.73
2023-04-15T10:27:05.803Z,36.72
2023-04-15T10:28:05.745Z,36.72
2023-04-15T10:29:05.712Z,36.69
2023-04-15T10:30:05.680Z,36.70
2023-04-15T10:31:05.665Z,36.71
2023-04-15T10:32:05.593Z,36.70
2023-04-15T10:33:05.565Z,36.69
2023-04-15T10:34:05.566Z,36.66
2023-04-15T10:35:05.501Z,36.67
2023-04-15T10:36:05.479Z,36.67
2023-04-15T10:37:05.439Z,36.64
2023-04-15T10:38:05.403Z,36.65
2023-04-15T10:39:05.367Z,36.66
2023-04-15T10:40:05.344Z,36.66
2023-04-15T10:41:05.298Z,36.65
2023-04-15T10:42:05.256Z,36.66
2023-04-15T10:43:05.233Z,36.63
2023-04-15T10:44:05.425Z,36.65
2023-04-15T10:45:05.152Z,36.68
2023-04-15T10:46:05.161Z,36.67
2023-04-15T10:47:05.089Z,36.65
2023-04-15T10:48:05.082Z,36.65
2023-04-15T10:49:05.024Z,36.66
2023-04-15T10:50:05.008Z,36.67
2023-04-15T10:51:04.965Z,36.67
2023-04-15T10:52:04.911Z,36.65
2023-04-15T10:53:04.886Z,36.62
2023-04-15T10:54:05.023Z,36.63
2023-04-15T10:55:04.820Z,36.65
2023-04-15T10:56:04.791Z,36.62
2023-04-15T10:57:04.754Z,36.61
2023-04-15T10:58:04.727Z,36.60
2023-04-15T10:59:04.704Z,36.61
2023-04-15T11:00:04.667Z,36.63
2023-04-15T11:01:04.603Z,36.60
2023-04-15T11:02:04.610Z,36.59
2023-04-15T11:03:04.687Z,36.62
2023-04-15T11:04:04.699Z,36.62
2023-04-15T11:05:04.494Z,36.64
2023-04-15T11:06:04.404Z,36.61
2023-04-15T11:07:04.356Z,36.60
2023-04-15T11:08:04.314Z,36.59
2023-04-15T11:09:04.277Z,36.59
2023-04-15T11:10:04.240Z,36.60
2023-04-15T11:11:04.235Z,36.60
2023-04-15T11:12:04.155Z,36.58
2023-04-15T11:13:04.134Z,36.61
2023-04-15T11:14:04.230Z,36.59
2023-04-15T11:15:04.049Z,36.58
2023-04-15T11:16:04.066Z,36.59
2023-04-15T11:17:03.986Z,36.59
2023-04-15T11:18:03.982Z,36.59
2023-04-15T11:19:03.932Z,36.59
2023-04-15T11:20:03.882Z,36.56
2023-04-15T11:21:03.848Z,36.58
2023-04-15T11:22:03.806Z,36.59
2023-04-15T11:23:14.008Z,36.56
2023-04-15T11:24:05.010Z,36.59
2023-04-15T11:25:03.695Z,36.57
2023-04-15T11:26:03.682Z,36.59
2023-04-15T11:27:03.628Z,36.56
2023-04-15T11:28:03.599Z,36.57
2023-04-15T11:29:03.871Z,36.55
2023-04-15T11:30:03.502Z,36.55
2023-04-15T11:31:03.471Z,36.57
2023-04-15T11:32:03.485Z,36.55
2023-04-15T11:33:03.448Z,36.55
2023-04-15T11:34:03.373Z,36.54
2023-04-15T11:35:03.325Z,36.57
2023-04-15T11:36:03.293Z,36.56
2023-04-15T11:37:03.268Z,36.59
2023-04-15T11:38:03.205Z,36.56
2023-04-15T11:39:03.166Z,36.57
2023-04-15T11:40:03.173Z,36.59
2023-04-15T11:41:03.104Z,36.59
2023-04-15T11:42:03.063Z,36.57
2023-04-15T11:43:03.023Z,36.59
2023-04-15T11:44:03.163Z,36.59
2023-04-15T11:45:02.955Z,36.58
2023-04-15T11:46:02.956Z,36.58
2023-04-15T11:47:02.876Z,36.58
2023-04-15T11:48:02.848Z,36.57
2023-04-15T11:49:02.788Z,36.59
2023-04-15T11:50:02.750Z,36.60
2023-04-15T11:51:02.767Z,36.60
2023-04-15T11:52:02.677Z,36.62
2023-04-15T11:53:02.646Z,36.63
2023-04-15T11:54:02.929Z,36.66
2023-04-15T11:55:02.565Z,36.65
2023-04-15T11:56:02.541Z,36.65
2023-04-15T11:57:02.492Z,36.65
2023-04-15T11:58:02.452Z,36.64
2023-04-15T11:59:02.449Z,36.67
2023-04-15T12:00:02.368Z,36.68
2023-04-15T12:01:02.367Z,36.65
2023-04-15T12:02:02.350Z,36.64
2023-04-15T12:03:02.501Z,36.68
2023-04-15T12:04:02.586Z,36.68
2023-04-15T12:05:02.239Z,36.67
2023-04-15T12:06:02.187Z,36.68
2023-04-15T12:07:02.128Z,36.68
2023-04-15T12:08:02.880Z,36.67
2023-04-15T12:09:02.063Z,36.70
2023-04-15T12:10:02.062Z,36.68
2023-04-15T12:11:01.987Z,36.68
2023-04-15T12:12:01.946Z,36.70
2023-04-15T12:13:01.913Z,36.70
2023-04-15T12:14:02.151Z,36.73
2023-04-15T12:15:01.870Z,36.73
2023-04-15T12:16:01.849Z,36.73
2023-04-15T12:17:01.819Z,36.73
2023-04-15T12:18:01.786Z,36.73
2023-04-15T12:19:01.730Z,36.73
2023-04-15T12:20:01.714Z,36.78
2023-04-15T12:21:01.657Z,36.76
2023-04-15T12:22:01.607Z,36.74
2023-04-15T12:23:01.568Z,36.75
2023-04-15T12:24:01.531Z,36.77
2023-04-15T12:25:01.493Z,36.78
2023-04-15T12:26:01.467Z,36.78
2023-04-15T12:27:01.454Z,36.77
2023-04-15T12:28:01.404Z,36.78
2023-04-15T12:29:01.338Z,36.79
2023-04-15T12:30:01.311Z,36.78
2023-04-15T12:31:01.289Z,36.81
2023-04-15T12:32:01.209Z,36.82
2023-04-15T12:33:01.221Z,36.82
2023-04-15T12:34:01.141Z,36.81
2023-04-15T12:35:01.069Z,36.80
2023-04-15T12:36:01.039Z,36.78
2023-04-15T12:37:00.993Z,36.81
2023-04-15T12:38:00.959Z,36.80
2023-04-15T12:39:00.915Z,36.79
2023-04-15T12:40:00.889Z,36.79
2023-04-15T12:41:00.899Z,36.78
2023-04-15T12:42:00.810Z,36.78
2023-04-15T12:43:00.765Z,36.80
2023-04-15T12:44:00.732Z,36.77
2023-04-15T12:45:01.099Z,36.78
2023-04-15T12:46:00.670Z,36.79
2023-04-15T12:47:00.700Z,36.83
2023-04-15T12:48:00.641Z,36.80
2023-04-15T12:49:00.575Z,36.82
2023-04-15T12:50:00.522Z,36.83
2023-04-15T12:51:00.499Z,36.83
2023-04-15T12:52:00.460Z,36.83